Plan B — ZCND5 — position and weather

sailwx.info

Track history (hours):
 
Tides and Currents Weather Stations Pressure Air Temp Water Temp Dewpoint Dewpoint Depression Visibility Wind Speed Wind Dir Waves Ship Positions

Plan B

Last reported at 2015-Aug-30 12:11 UTC. Time now 2015-Sep-02 04:25 UTC.
Position N 37°20' W 000°54'.

Length 49 m; draft 3.2 m.

Type: Pleasure craft. MMSI: 319075000.

Date/timePositionNaut miles runAvg speedWind from/ knotsBaromVisibWave heightAir tempDewpointWater temp
2015-Aug-30 12:11N 37°20' W 000°54'812.3
2015-Aug-30 11:33N 37°25' W 000°47'1612.2
2015-Aug-30 10:12N 37°36' W 000°32'13711.7
2015-Aug-29 22:32N 39°23' E 001°16'1211.9
2015-Aug-29 21:30N 39°32' E 001°28'1212.2
2015-Aug-29 20:32N 39°40' E 001°40'1212.1
2015-Aug-29 19:33N 39°47' E 001°51'1211.8
2015-Aug-29 18:33N 39°55' E 002°03'1211.7
2015-Aug-29 17:33N 40°03' E 002°15'1212.0
2015-Aug-29 16:33N 40°11' E 002°26'1211.9
2015-Aug-29 15:33N 40°19' E 002°38'1211.9
2015-Aug-29 14:33N 40°27' E 002°50'1211.7
2015-Aug-29 13:33N 40°35' E 003°01'1211.9
2015-Aug-29 12:33N 40°42' E 003°13'1211.9
2015-Aug-29 11:32N 40°50' E 003°25'18811.8
2015-Aug-28 19:32N 42°55' E 006°35'1212.7
2015-Aug-28 18:33N 43°04' E 006°47'1312.8
2015-Aug-28 17:33N 43°13' E 006°59'50 1.6
2015-Aug-27 10:26N 43°49' E 007°47'0 0.0
2015-Aug-27 09:13N 43°49' E 007°47'0 0.0
2015-Aug-27 08:31N 43°49' E 007°47'0 0.0
2015-Aug-27 07:31N 43°49' E 007°47'0 0.0
2015-Aug-26 11:12N 43°49' E 007°47'0 0.0
2015-Aug-26 10:30N 43°49' E 007°47'0 0.0
2015-Aug-24 13:25N 43°49' E 007°47'35 1.3
2015-Aug-23 10:33N 44°08' E 008°27'1212.3
2015-Aug-23 09:33N 44°18' E 008°37'7 6.8
2015-Aug-23 08:33N 44°24' E 008°42'0 0.0
2015-Aug-23 07:33N 44°24' E 008°42'0 0.0
2015-Aug-23 06:33N 44°24' E 008°42'0 0.0
2015-Aug-23 05:33N 44°24' E 008°42'0 0.0
2015-Aug-23 04:33N 44°24' E 008°42'0 0.0
2015-Aug-23 03:33N 44°24' E 008°42'3 3.0
2015-Aug-23 02:33N 44°22' E 008°45'1111.5
2015-Aug-23 01:33N 44°19' E 009°01'11 0.5
2015-Aug-22 05:33N 44°13' E 009°13'100 4.3
2015-Aug-21 06:27N 42°35' E 008°44'  
Track history (hours):
 
Tides and Currents Weather Stations Pressure Air Temp Water Temp Dewpoint Dewpoint Depression Visibility Wind Speed Wind Dir Waves Ship Positions

Plan B

Last reported at 2015-Aug-30 12:11 UTC. Time now 2015-Sep-02 04:25 UTC.
Position N 37°20' W 000°54'.

Length 49 m; draft 3.2 m.

Type: Pleasure craft. MMSI: 319075000.

Date/timePositionNaut miles runAvg speedWind from/ knotsBaromVisibWave heightAir tempDewpointWater temp
2015-Aug-30 12:11N 37°20' W 000°54'812.3
2015-Aug-30 11:33N 37°25' W 000°47'1612.2
2015-Aug-30 10:12N 37°36' W 000°32'13711.7
2015-Aug-29 22:32N 39°23' E 001°16'1211.9
2015-Aug-29 21:30N 39°32' E 001°28'1212.2
2015-Aug-29 20:32N 39°40' E 001°40'1212.1
2015-Aug-29 19:33N 39°47' E 001°51'1211.8
2015-Aug-29 18:33N 39°55' E 002°03'1211.7
2015-Aug-29 17:33N 40°03' E 002°15'1212.0
2015-Aug-29 16:33N 40°11' E 002°26'1211.9
2015-Aug-29 15:33N 40°19' E 002°38'1211.9
2015-Aug-29 14:33N 40°27' E 002°50'1211.7
2015-Aug-29 13:33N 40°35' E 003°01'1211.9
2015-Aug-29 12:33N 40°42' E 003°13'1211.9
2015-Aug-29 11:32N 40°50' E 003°25'18811.8
2015-Aug-28 19:32N 42°55' E 006°35'1212.7
2015-Aug-28 18:33N 43°04' E 006°47'1312.8
2015-Aug-28 17:33N 43°13' E 006°59'50 1.6
2015-Aug-27 10:26N 43°49' E 007°47'0 0.0
2015-Aug-27 09:13N 43°49' E 007°47'0 0.0
2015-Aug-27 08:31N 43°49' E 007°47'0 0.0
2015-Aug-27 07:31N 43°49' E 007°47'0 0.0
2015-Aug-26 11:12N 43°49' E 007°47'0 0.0
2015-Aug-26 10:30N 43°49' E 007°47'0 0.0
2015-Aug-24 13:25N 43°49' E 007°47'35 1.3
2015-Aug-23 10:33N 44°08' E 008°27'1212.3
2015-Aug-23 09:33N 44°18' E 008°37'7 6.8
2015-Aug-23 08:33N 44°24' E 008°42'0 0.0
2015-Aug-23 07:33N 44°24' E 008°42'0 0.0
2015-Aug-23 06:33N 44°24' E 008°42'0 0.0
2015-Aug-23 05:33N 44°24' E 008°42'0 0.0
2015-Aug-23 04:33N 44°24' E 008°42'0 0.0
2015-Aug-23 03:33N 44°24' E 008°42'3 3.0
2015-Aug-23 02:33N 44°22' E 008°45'1111.5
2015-Aug-23 01:33N 44°19' E 009°01'11 0.5
2015-Aug-22 05:33N 44°13' E 009°13'100 4.3
2015-Aug-21 06:27N 42°35' E 008°44'  

Dump ship's entire track history